CheckWX is a tool to help pilots better visualize weather data.  It is not intended as a substitute for an official pre-flight weather briefing.

08:03:54 UTC

ETND TAF
Diepholz Airport
Diepholz, Germany
TAF ETND 190520Z 1906/1915 27008KT 9999 NSW SCT050 BY ETGL

Mar-19@
06:00 UTC

Mar-19 @ 06:00 UTC

Mar-19@
15:00 UTC

Mar-19 @ 15:00 UTC

TAF ETND 190520Z 1906/1915 27008KT 9999 NSW SCT050 BY ETGL
Wind
  • 270° at 8 KTS
Conditions
No significant weather
Cloud Levels
  • Scattered at 5,000' AGL